Time;durP1;ratioP1;P1;durP2;ratioP2;P2;SDS_P1;SDS_P2;PMS_P1;PMS_P2;Temp;Humidity;BMP_temperature;BMP_pressure;BME280_temperature;BME280_humidity;BME280_pressure;Samples;Min_cycle;Max_cycle;Signal;HPM_P1;HPM_P2
2021/01/17 14:57:22;;;;;;;65.00;31.00;;;;;;;;;;5071830;28;20372;-94
2021/01/17 14:59:48;;;;;;;70.85;32.08;;;;;;;;;;5069957;28;20021;-93
2021/01/17 15:02:15;;;;;;;65.50;33.85;;;-12.70;76.90;;;;;;5069689;28;20543;-91
2021/01/17 15:04:41;;;;;;;62.65;30.88;;;;;;;;;;5068138;28;20020;-92
2021/01/17 15:07:06;;;;;;;69.80;34.25;;;-12.50;77.70;;;;;;5069795;28;20024;-94
2021/01/17 15:09:32;;;;;;;59.90;28.48;;;-12.40;79.00;;;;;;5069713;28;20035;-93
2021/01/17 15:11:58;;;;;;;67.55;30.58;;;-12.30;80.00;;;;;;5069719;28;20056;-93
2021/01/17 15:14:24;;;;;;;65.40;31.42;;;-12.20;80.40;;;;;;5071061;28;20079;-93
2021/01/17 15:16:50;;;;;;;62.47;28.52;;;-12.20;81.00;;;;;;5069105;28;20028;-93
2021/01/17 15:19:16;;;;;;;62.45;28.08;;;-12.10;81.00;;;;;;5069427;28;20033;-93
2021/01/17 15:21:41;;;;;;;53.90;26.42;;;-12.10;80.90;;;;;;5069435;28;20155;-91
2021/01/17 15:24:14;;;;;;;60.33;27.45;;;-12.10;80.90;;;;;;5069457;28;20036;-94
2021/01/17 15:26:40;;;;;;;55.17;26.67;;;-12.10;80.60;;;;;;5068915;28;20381;-92
2021/01/17 15:29:09;;;;;;;63.92;29.42;;;-12.10;80.80;;;;;;5069579;28;20035;-93
2021/01/17 15:31:35;;;;;;;62.35;28.80;;;-12.10;80.90;;;;;;5069336;28;20024;-94
2021/01/17 15:34:01;;;;;;;57.05;27.23;;;-12.10;80.80;;;;;;5069376;28;20025;-94
2021/01/17 15:36:26;;;;;;;54.17;25.55;;;-12.00;80.00;;;;;;5069251;28;20025;-94
2021/01/17 15:38:52;;;;;;;59.17;28.98;;;-12.10;80.80;;;;;;5069186;28;20052;-93
2021/01/17 15:41:26;;;;;;;57.38;25.77;;;-12.10;80.90;;;;;;5069229;28;20051;-93
2021/01/17 15:43:52;;;;;;;52.53;25.08;;;-12.10;80.80;;;;;;5069111;28;20025;-94
2021/01/17 15:46:18;;;;;;;60.10;29.27;;;-12.10;81.10;;;;;;5070679;28;20025;-95
2021/01/17 15:48:48;;;;;;;63.75;26.55;;;-12.20;81.00;;;;;;5069661;28;20063;-93
2021/01/17 15:51:17;;;;;;;73.07;31.77;;;-12.20;81.10;;;;;;5070280;28;20028;-93
2021/01/17 15:53:46;;;;;;;70.65;30.35;;;-12.20;81.10;;;;;;5070039;28;20456;-95
2021/01/17 15:56:12;;;;;;;72.47;30.95;;;-12.20;81.20;;;;;;5070435;28;20079;-94
2021/01/17 15:58:38;;;;;;;63.13;29.65;;;-12.20;81.30;;;;;;5069850;28;20025;-92
2021/01/17 16:01:04;;;;;;;69.78;31.85;;;-12.30;81.20;;;;;;5071366;28;20082;-95
2021/01/17 16:03:32;;;;;;;75.15;33.67;;;-12.40;80.40;;;;;;5071709;28;20048;-96
2021/01/17 16:05:59;;;;;;;72.50;33.42;;;-12.40;80.40;;;;;;5071769;28;20005;-95
2021/01/17 16:08:25;;;;;;;66.10;34.17;;;-12.50;80.20;;;;;;5067682;28;20027;-95
2021/01/17 16:12:46;;;;;;;70.45;32.30;;;-10.90;80.60;;;;;;5023616;27;1582210;-94
2021/01/17 16:15:12;;;;;;;71.82;31.95;;;-12.70;79.50;;;;;;5073997;28;20025;-95
2021/01/17 16:17:39;;;;;;;86.90;36.67;;;-12.70;79.40;;;;;;5073832;28;20025;-94
2021/01/17 16:20:06;;;;;;;83.43;35.03;;;-12.70;79.40;;;;;;5074314;28;20070;-94
2021/01/17 16:22:32;;;;;;;76.80;32.40;;;-12.70;79.60;;;;;;5074878;28;20021;-94
2021/01/17 16:24:58;;;;;;;71.35;32.95;;;-12.80;79.70;;;;;;5073713;28;20388;-93
2021/01/17 16:27:27;;;;;;;84.78;36.83;;;;;;;;;;5091808;28;20027;-94
2021/01/17 16:29:56;;;;;;;72.15;32.28;;;;;;;;;;5076671;28;20133;-95
2021/01/17 16:32:29;;;;;;;75.82;31.80;;;;;;;;;;5079224;28;20028;-94
2021/01/17 16:34:57;;;;;;;72.57;33.08;;;-13.00;80.00;;;;;;5075901;28;20043;-94
2021/01/17 16:37:27;;;;;;;71.43;31.85;;;;;;;;;;5076484;28;20017;-94
2021/01/17 16:39:56;;;;;;;67.95;31.40;;;-13.10;80.10;;;;;;5075129;28;20024;-95
2021/01/17 16:42:23;;;;;;;65.57;29.95;;;;;;;;;;5073922;28;20030;-91
2021/01/17 16:44:48;;;;;;;65.22;29.63;;;-13.00;80.40;;;;;;5074331;28;20476;-92
2021/01/17 16:47:15;;;;;;;60.63;29.40;;;-14.00;79.70;;;;;;5073886;28;20066;-93
2021/01/17 18:06:15;;;;;;;70.00;29.37;;;;;;;;;;5113014;27;20377;-91
2021/01/17 18:08:42;;;;;;;56.83;27.70;;;;;;;;;;5113510;28;20058;-95
2021/01/17 18:11:08;;;;;;;57.00;24.73;;;;;;;;;;5111773;28;20032;-92
2021/01/17 18:13:34;;;;;;;50.20;24.13;;;;;;;;;;5111373;28;20020;-92
2021/01/17 18:16:01;;;;;;;79.07;32.37;;;;;;;;;;5111157;28;20488;-94
2021/01/17 18:18:27;;;;;;;93.30;38.03;;;;;;;;;;5111044;28;20019;-94
2021/01/17 18:21:02;;;;;;;78.77;36.93;;;-14.70;83.20;;;;;;5110774;28;20038;-93
2021/01/17 18:23:29;;;;;;;86.72;41.95;;;;;;;;;;5111807;28;20372;-92
2021/01/17 18:25:55;;;;;;;75.28;37.13;;;;;;;;;;5111907;28;20020;-92
2021/01/17 18:28:21;;;;;;;79.75;36.80;;;-14.30;84.10;;;;;;5110085;28;20480;-92
2021/01/17 18:30:47;;;;;;;102.13;41.58;;;;;;;;;;5110036;28;20038;-93
2021/01/17 18:33:13;;;;;;;104.32;42.00;;;-14.20;84.40;;;;;;5110056;28;20031;-91
2021/01/17 18:35:38;;;;;;;124.05;48.65;;;-13.40;85.00;;;;;;5110348;28;20023;-93
2021/01/17 18:38:06;;;;;;;124.32;50.08;;;;;;;;;;5111837;28;20046;-92
2021/01/17 18:40:32;;;;;;;112.68;46.45;;;-12.80;85.00;;;;;;5112795;28;20023;-91
2021/01/17 18:42:59;;;;;;;95.35;39.47;;;-14.10;84.60;;;;;;5113524;28;20024;-93
2021/01/17 18:45:26;;;;;;;111.53;44.97;;;-14.00;84.50;;;;;;5116987;28;20032;-92
2021/01/17 18:47:58;;;;;;;98.20;38.90;;;-13.90;84.70;;;;;;5112376;28;20024;-93
2021/01/17 18:50:23;;;;;;;90.93;34.97;;;-13.90;84.50;;;;;;5112618;28;20148;-92
2021/01/17 18:52:49;;;;;;;77.15;33.70;;;-13.90;84.50;;;;;;5112014;28;20055;-92
2021/01/17 18:55:15;;;;;;;96.50;36.53;;;-13.40;84.60;;;;;;5110546;28;20054;-92
2021/01/17 18:57:40;;;;;;;95.45;36.47;;;-12.70;85.00;;;;;;5109569;28;20020;-91
2021/01/17 19:00:09;;;;;;;92.53;38.13;;;-13.70;84.20;;;;;;5084822;22;20057;-91
2021/01/17 19:02:36;;;;;;;83.03;36.42;;;-13.70;84.10;;;;;;5053400;28;20025;-92
2021/01/17 19:05:04;;;;;;;67.15;28.88;;;-13.60;84.30;;;;;;5052746;28;20068;-90
2021/01/17 19:07:30;;;;;;;63.05;30.17;;;-13.70;84.20;;;;;;5050689;28;20112;-92
2021/01/17 19:09:57;;;;;;;80.07;38.58;;;-13.70;84.20;;;;;;5053847;28;20041;-94
2021/01/17 19:12:25;;;;;;;68.28;31.35;;;-13.70;84.10;;;;;;5050105;28;20076;-91
2021/01/17 19:14:50;;;;;;;70.68;33.47;;;-14.40;83.80;;;;;;5048100;28;20029;-92
2021/01/17 19:17:16;;;;;;;88.88;40.33;;;-13.70;84.20;;;;;;5037387;28;20625;-93
2021/01/17 19:19:42;;;;;;;85.47;42.45;;;-13.70;83.90;;;;;;5036429;28;20455;-92
2021/01/17 19:22:08;;;;;;;87.53;42.10;;;-13.90;83.80;;;;;;5035782;28;20448;-93
2021/01/17 19:24:34;;;;;;;81.20;37.33;;;-13.80;84.40;;;;;;5037547;28;20025;-92
2021/01/17 19:27:00;;;;;;;70.78;33.20;;;-13.70;84.90;;;;;;5035446;28;20483;-92
2021/01/17 19:29:31;;;;;;;69.53;32.45;;;-13.70;84.90;;;;;;5036816;28;20018;-94
